sensor_id;sensor_type;location;lat;lon;timestamp;temperature;humidity
65836;SHT30;52595;51.608;7.216;2023-06-26T00:02:09;22.30;72.60
65836;SHT30;52595;51.608;7.216;2023-06-26T00:04:34;22.25;72.55
65836;SHT30;52595;51.608;7.216;2023-06-26T00:07:01;22.22;72.46
65836;SHT30;52595;51.608;7.216;2023-06-26T00:09:26;22.24;72.35
65836;SHT30;52595;51.608;7.216;2023-06-26T00:11:51;22.15;72.99
65836;SHT30;52595;51.608;7.216;2023-06-26T00:14:17;22.13;72.96
65836;SHT30;52595;51.608;7.216;2023-06-26T00:16:46;22.08;72.96
65836;SHT30;52595;51.608;7.216;2023-06-26T00:19:12;21.96;74.38
65836;SHT30;52595;51.608;7.216;2023-06-26T00:21:37;21.81;73.72
65836;SHT30;52595;51.608;7.216;2023-06-26T00:24:03;21.76;74.24
65836;SHT30;52595;51.608;7.216;2023-06-26T00:26:28;21.70;75.21
65836;SHT30;52595;51.608;7.216;2023-06-26T00:28:54;21.64;75.43
65836;SHT30;52595;51.608;7.216;2023-06-26T00:31:19;21.60;76.13
65836;SHT30;52595;51.608;7.216;2023-06-26T00:33:44;21.57;76.70
65836;SHT30;52595;51.608;7.216;2023-06-26T00:36:10;21.57;76.14
65836;SHT30;52595;51.608;7.216;2023-06-26T00:38:35;21.47;76.37
65836;SHT30;52595;51.608;7.216;2023-06-26T00:41:01;21.46;77.11
65836;SHT30;52595;51.608;7.216;2023-06-26T00:43:26;21.43;77.02
65836;SHT30;52595;51.608;7.216;2023-06-26T00:45:51;21.40;74.92
65836;SHT30;52595;51.608;7.216;2023-06-26T00:48:17;21.45;76.47
65836;SHT30;52595;51.608;7.216;2023-06-26T00:50:43;21.39;76.64
65836;SHT30;52595;51.608;7.216;2023-06-26T00:53:09;21.33;76.25
65836;SHT30;52595;51.608;7.216;2023-06-26T00:55:35;21.33;75.49
65836;SHT30;52595;51.608;7.216;2023-06-26T00:58:00;21.33;75.71
65836;SHT30;52595;51.608;7.216;2023-06-26T01:00:26;21.33;75.32
65836;SHT30;52595;51.608;7.216;2023-06-26T01:02:51;21.33;75.10
65836;SHT30;52595;51.608;7.216;2023-06-26T01:05:17;21.40;76.06
65836;SHT30;52595;51.608;7.216;2023-06-26T01:07:49;21.33;75.53
65836;SHT30;52595;51.608;7.216;2023-06-26T01:10:14;21.36;74.69
65836;SHT30;52595;51.608;7.216;2023-06-26T01:12:40;21.32;74.94
65836;SHT30;52595;51.608;7.216;2023-06-26T01:15:06;21.30;75.25
65836;SHT30;52595;51.608;7.216;2023-06-26T01:17:32;21.30;76.43
65836;SHT30;52595;51.608;7.216;2023-06-26T01:20:02;21.28;76.02
65836;SHT30;52595;51.608;7.216;2023-06-26T01:22:47;21.15;76.56
65836;SHT30;52595;51.608;7.216;2023-06-26T01:25:37;21.00;76.33
65836;SHT30;52595;51.608;7.216;2023-06-26T01:28:05;21.02;78.23
65836;SHT30;52595;51.608;7.216;2023-06-26T01:30:42;20.98;77.96
65836;SHT30;52595;51.608;7.216;2023-06-26T01:33:08;21.08;77.08
65836;SHT30;52595;51.608;7.216;2023-06-26T01:35:34;20.98;76.96
65836;SHT30;52595;51.608;7.216;2023-06-26T01:38:16;20.95;77.50
65836;SHT30;52595;51.608;7.216;2023-06-26T01:40:41;20.86;78.45
65836;SHT30;52595;51.608;7.216;2023-06-26T01:46:05;20.96;77.07
65836;SHT30;52595;51.608;7.216;2023-06-26T01:48:46;20.98;76.85
65836;SHT30;52595;51.608;7.216;2023-06-26T01:51:14;20.98;77.41
65836;SHT30;52595;51.608;7.216;2023-06-26T01:53:45;20.86;77.79
65836;SHT30;52595;51.608;7.216;2023-06-26T01:56:13;20.71;77.69
65836;SHT30;52595;51.608;7.216;2023-06-26T01:58:43;20.64;75.76
65836;SHT30;52595;51.608;7.216;2023-06-26T02:01:10;20.58;76.28
65836;SHT30;52595;51.608;7.216;2023-06-26T02:03:36;20.65;78.28
65836;SHT30;52595;51.608;7.216;2023-06-26T02:06:02;20.64;77.75
65836;SHT30;52595;51.608;7.216;2023-06-26T02:08:27;20.58;76.98
65836;SHT30;52595;51.608;7.216;2023-06-26T02:10:52;20.58;77.16
65836;SHT30;52595;51.608;7.216;2023-06-26T02:13:18;20.56;77.04
65836;SHT30;52595;51.608;7.216;2023-06-26T02:15:43;20.51;76.34
65836;SHT30;52595;51.608;7.216;2023-06-26T02:18:08;20.56;76.01
65836;SHT30;52595;51.608;7.216;2023-06-26T02:20:34;20.55;75.87
65836;SHT30;52595;51.608;7.216;2023-06-26T02:22:59;20.59;75.88
65836;SHT30;52595;51.608;7.216;2023-06-26T02:25:25;20.56;75.84
65836;SHT30;52595;51.608;7.216;2023-06-26T02:27:50;20.54;76.01
65836;SHT30;52595;51.608;7.216;2023-06-26T02:30:16;20.48;75.74
65836;SHT30;52595;51.608;7.216;2023-06-26T02:32:41;20.52;74.80
65836;SHT30;52595;51.608;7.216;2023-06-26T02:35:07;20.58;74.44
65836;SHT30;52595;51.608;7.216;2023-06-26T02:37:32;20.69;74.15
65836;SHT30;52595;51.608;7.216;2023-06-26T02:39:58;20.68;73.98
65836;SHT30;52595;51.608;7.216;2023-06-26T02:42:23;20.71;73.85
65836;SHT30;52595;51.608;7.216;2023-06-26T02:44:49;20.68;73.95
65836;SHT30;52595;51.608;7.216;2023-06-26T02:47:14;20.65;74.45
65836;SHT30;52595;51.608;7.216;2023-06-26T02:49:39;20.59;74.27
65836;SHT30;52595;51.608;7.216;2023-06-26T02:52:05;20.88;72.85
65836;SHT30;52595;51.608;7.216;2023-06-26T02:54:30;21.03;72.89
65836;SHT30;52595;51.608;7.216;2023-06-26T02:56:56;21.05;72.36
65836;SHT30;52595;51.608;7.216;2023-06-26T02:59:21;21.05;72.33
65836;SHT30;52595;51.608;7.216;2023-06-26T03:01:47;21.05;72.20
65836;SHT30;52595;51.608;7.216;2023-06-26T03:04:12;20.98;73.04
65836;SHT30;52595;51.608;7.216;2023-06-26T03:06:37;20.99;72.10
65836;SHT30;52595;51.608;7.216;2023-06-26T03:09:03;21.00;72.07
65836;SHT30;52595;51.608;7.216;2023-06-26T03:11:28;20.99;72.37
65836;SHT30;52595;51.608;7.216;2023-06-26T03:13:54;20.89;72.63
65836;SHT30;52595;51.608;7.216;2023-06-26T03:16:19;20.78;73.10
65836;SHT30;52595;51.608;7.216;2023-06-26T03:18:45;20.74;73.20
65836;SHT30;52595;51.608;7.216;2023-06-26T03:21:10;20.75;72.83
65836;SHT30;52595;51.608;7.216;2023-06-26T03:23:35;20.82;72.40
65836;SHT30;52595;51.608;7.216;2023-06-26T03:26:01;20.86;72.74
65836;SHT30;52595;51.608;7.216;2023-06-26T03:28:26;20.95;72.11
65836;SHT30;52595;51.608;7.216;2023-06-26T03:30:52;20.94;71.79
65836;SHT30;52595;51.608;7.216;2023-06-26T03:33:17;21.00;71.37
65836;SHT30;52595;51.608;7.216;2023-06-26T03:35:42;21.06;71.14
65836;SHT30;52595;51.608;7.216;2023-06-26T03:38:08;21.10;71.35
65836;SHT30;52595;51.608;7.216;2023-06-26T03:40:33;21.10;71.51
65836;SHT30;52595;51.608;7.216;2023-06-26T03:42:59;21.03;71.45
65836;SHT30;52595;51.608;7.216;2023-06-26T03:45:24;21.03;71.89
65836;SHT30;52595;51.608;7.216;2023-06-26T03:47:50;21.00;71.87
65836;SHT30;52595;51.608;7.216;2023-06-26T03:50:16;20.98;72.16
65836;SHT30;52595;51.608;7.216;2023-06-26T03:52:41;21.05;72.09
65836;SHT30;52595;51.608;7.216;2023-06-26T03:55:07;21.10;71.98
65836;SHT30;52595;51.608;7.216;2023-06-26T03:57:33;21.09;72.13
65836;SHT30;52595;51.608;7.216;2023-06-26T03:59:58;21.12;72.08
65836;SHT30;52595;51.608;7.216;2023-06-26T04:02:24;21.16;72.11
65836;SHT30;52595;51.608;7.216;2023-06-26T04:04:49;21.12;72.40
65836;SHT30;52595;51.608;7.216;2023-06-26T04:07:15;21.19;72.29
65836;SHT30;52595;51.608;7.216;2023-06-26T04:09:40;21.23;72.09
65836;SHT30;52595;51.608;7.216;2023-06-26T04:12:06;21.30;72.15
65836;SHT30;52595;51.608;7.216;2023-06-26T04:14:31;21.30;72.28
65836;SHT30;52595;51.608;7.216;2023-06-26T04:16:57;21.33;72.56
65836;SHT30;52595;51.608;7.216;2023-06-26T04:19:23;21.36;72.53
65836;SHT30;52595;51.608;7.216;2023-06-26T04:21:48;21.38;72.54
65836;SHT30;52595;51.608;7.216;2023-06-26T04:24:14;21.42;72.84
65836;SHT30;52595;51.608;7.216;2023-06-26T04:26:39;21.49;72.76
65836;SHT30;52595;51.608;7.216;2023-06-26T04:29:06;21.51;73.17
65836;SHT30;52595;51.608;7.216;2023-06-26T04:31:32;21.50;73.40
65836;SHT30;52595;51.608;7.216;2023-06-26T04:33:57;21.57;73.41
65836;SHT30;52595;51.608;7.216;2023-06-26T04:36:24;21.61;73.67
65836;SHT30;52595;51.608;7.216;2023-06-26T04:38:54;21.63;73.77
65836;SHT30;52595;51.608;7.216;2023-06-26T04:41:19;21.60;74.11
65836;SHT30;52595;51.608;7.216;2023-06-26T04:43:44;21.61;74.34
65836;SHT30;52595;51.608;7.216;2023-06-26T04:46:10;21.61;74.59
65836;SHT30;52595;51.608;7.216;2023-06-26T04:48:35;21.56;75.00
65836;SHT30;52595;51.608;7.216;2023-06-26T04:51:01;21.57;74.84
65836;SHT30;52595;51.608;7.216;2023-06-26T04:53:26;21.56;75.37
65836;SHT30;52595;51.608;7.216;2023-06-26T04:55:52;21.57;75.08
65836;SHT30;52595;51.608;7.216;2023-06-26T04:58:18;21.59;75.12
65836;SHT30;52595;51.608;7.216;2023-06-26T05:00:44;21.57;75.08
65836;SHT30;52595;51.608;7.216;2023-06-26T05:03:12;21.54;75.27
65836;SHT30;52595;51.608;7.216;2023-06-26T05:05:37;21.57;75.32
65836;SHT30;52595;51.608;7.216;2023-06-26T05:08:32;21.57;75.60
65836;SHT30;52595;51.608;7.216;2023-06-26T05:10:58;21.59;75.33
65836;SHT30;52595;51.608;7.216;2023-06-26T05:13:26;21.63;75.52
65836;SHT30;52595;51.608;7.216;2023-06-26T05:15:52;21.56;75.33
65836;SHT30;52595;51.608;7.216;2023-06-26T05:18:18;21.56;75.52
65836;SHT30;52595;51.608;7.216;2023-06-26T05:20:44;21.57;75.68
65836;SHT30;52595;51.608;7.216;2023-06-26T05:23:13;21.59;75.48
65836;SHT30;52595;51.608;7.216;2023-06-26T05:25:38;21.59;75.74
65836;SHT30;52595;51.608;7.216;2023-06-26T05:28:04;21.53;75.61
65836;SHT30;52595;51.608;7.216;2023-06-26T05:30:35;21.57;75.21
65836;SHT30;52595;51.608;7.216;2023-06-26T05:33:01;21.54;75.14
65836;SHT30;52595;51.608;7.216;2023-06-26T05:35:29;21.59;74.96
65836;SHT30;52595;51.608;7.216;2023-06-26T05:37:58;21.57;74.89
65836;SHT30;52595;51.608;7.216;2023-06-26T05:40:24;21.63;74.82
65836;SHT30;52595;51.608;7.216;2023-06-26T05:42:50;21.67;75.02
65836;SHT30;52595;51.608;7.216;2023-06-26T05:45:16;21.77;74.61
65836;SHT30;52595;51.608;7.216;2023-06-26T05:47:42;21.87;74.22
65836;SHT30;52595;51.608;7.216;2023-06-26T05:50:08;22.14;73.72
65836;SHT30;52595;51.608;7.216;2023-06-26T05:52:35;22.48;73.24
65836;SHT30;52595;51.608;7.216;2023-06-26T05:55:01;22.56;72.00
65836;SHT30;52595;51.608;7.216;2023-06-26T05:57:28;22.24;73.02
65836;SHT30;52595;51.608;7.216;2023-06-26T05:59:53;22.04;73.46
65836;SHT30;52595;51.608;7.216;2023-06-26T06:02:19;21.81;74.27
65836;SHT30;52595;51.608;7.216;2023-06-26T06:04:44;21.81;74.62
65836;SHT30;52595;51.608;7.216;2023-06-26T06:07:10;21.70;74.46
65836;SHT30;52595;51.608;7.216;2023-06-26T06:09:35;21.59;74.69
65836;SHT30;52595;51.608;7.216;2023-06-26T06:12:01;21.56;74.71
65836;SHT30;52595;51.608;7.216;2023-06-26T06:14:27;21.66;74.62
65836;SHT30;52595;51.608;7.216;2023-06-26T06:16:53;21.81;74.15
65836;SHT30;52595;51.608;7.216;2023-06-26T06:19:18;22.08;73.66
65836;SHT30;52595;51.608;7.216;2023-06-26T06:21:44;22.17;72.97
65836;SHT30;52595;51.608;7.216;2023-06-26T06:24:09;22.14;72.86
65836;SHT30;52595;51.608;7.216;2023-06-26T06:26:35;22.37;72.45
65836;SHT30;52595;51.608;7.216;2023-06-26T06:29:00;22.28;72.81
65836;SHT30;52595;51.608;7.216;2023-06-26T06:31:26;22.44;72.20
65836;SHT30;52595;51.608;7.216;2023-06-26T06:33:56;22.20;72.79
65836;SHT30;52595;51.608;7.216;2023-06-26T06:36:21;22.01;73.47
65836;SHT30;52595;51.608;7.216;2023-06-26T06:38:46;22.03;73.66
65836;SHT30;52595;51.608;7.216;2023-06-26T06:41:12;22.11;73.94
65836;SHT30;52595;51.608;7.216;2023-06-26T06:43:38;22.14;73.37
65836;SHT30;52595;51.608;7.216;2023-06-26T06:46:03;21.97;73.91
65836;SHT30;52595;51.608;7.216;2023-06-26T06:48:29;21.90;74.65
65836;SHT30;52595;51.608;7.216;2023-06-26T06:50:54;21.83;74.75
65836;SHT30;52595;51.608;7.216;2023-06-26T06:53:20;21.74;74.77
65836;SHT30;52595;51.608;7.216;2023-06-26T06:55:46;21.57;75.22
65836;SHT30;52595;51.608;7.216;2023-06-26T06:58:11;21.54;75.58
65836;SHT30;52595;51.608;7.216;2023-06-26T07:00:40;21.33;76.02
65836;SHT30;52595;51.608;7.216;2023-06-26T07:03:05;21.40;76.12
65836;SHT30;52595;51.608;7.216;2023-06-26T07:05:30;21.57;76.08
65836;SHT30;52595;51.608;7.216;2023-06-26T07:07:56;21.83;75.20
65836;SHT30;52595;51.608;7.216;2023-06-26T07:10:21;21.96;75.12
65836;SHT30;52595;51.608;7.216;2023-06-26T07:12:47;21.76;75.44
65836;SHT30;52595;51.608;7.216;2023-06-26T07:15:13;21.32;76.82
65836;SHT30;52595;51.608;7.216;2023-06-26T07:17:39;21.38;76.96
65836;SHT30;52595;51.608;7.216;2023-06-26T07:20:05;21.40;77.11
65836;SHT30;52595;51.608;7.216;2023-06-26T07:22:32;21.46;76.98
65836;SHT30;52595;51.608;7.216;2023-06-26T07:24:57;21.54;76.64
65836;SHT30;52595;51.608;7.216;2023-06-26T07:27:23;21.46;76.89
65836;SHT30;52595;51.608;7.216;2023-06-26T07:29:48;21.53;76.55
65836;SHT30;52595;51.608;7.216;2023-06-26T07:32:14;21.74;76.64
65836;SHT30;52595;51.608;7.216;2023-06-26T07:34:39;21.84;76.55
65836;SHT30;52595;51.608;7.216;2023-06-26T07:37:05;21.86;75.83
65836;SHT30;52595;51.608;7.216;2023-06-26T07:39:30;21.91;76.35
65836;SHT30;52595;51.608;7.216;2023-06-26T07:41:56;22.07;76.29
65836;SHT30;52595;51.608;7.216;2023-06-26T07:44:23;22.14;75.79
65836;SHT30;52595;51.608;7.216;2023-06-26T07:46:48;22.20;75.80
65836;SHT30;52595;51.608;7.216;2023-06-26T07:49:14;22.10;75.42
65836;SHT30;52595;51.608;7.216;2023-06-26T07:51:39;22.35;75.24
65836;SHT30;52595;51.608;7.216;2023-06-26T07:54:05;22.56;74.75
65836;SHT30;52595;51.608;7.216;2023-06-26T07:56:30;22.62;74.18
65836;SHT30;52595;51.608;7.216;2023-06-26T07:58:56;22.85;74.27
65836;SHT30;52595;51.608;7.216;2023-06-26T08:01:23;23.43;73.34
65836;SHT30;52595;51.608;7.216;2023-06-26T08:03:49;23.05;73.22
65836;SHT30;52595;51.608;7.216;2023-06-26T08:06:14;23.09;73.33
65836;SHT30;52595;51.608;7.216;2023-06-26T08:08:40;23.22;72.90
65836;SHT30;52595;51.608;7.216;2023-06-26T08:11:05;23.47;70.91
65836;SHT30;52595;51.608;7.216;2023-06-26T08:13:30;23.24;71.62
65836;SHT30;52595;51.608;7.216;2023-06-26T08:15:56;23.15;71.82
65836;SHT30;52595;51.608;7.216;2023-06-26T08:18:21;22.96;72.74
65836;SHT30;52595;51.608;7.216;2023-06-26T08:20:46;22.65;72.96
65836;SHT30;52595;51.608;7.216;2023-06-26T08:23:12;22.75;73.15
65836;SHT30;52595;51.608;7.216;2023-06-26T08:25:37;23.09;72.52
65836;SHT30;52595;51.608;7.216;2023-06-26T08:28:03;23.34;71.28
65836;SHT30;52595;51.608;7.216;2023-06-26T08:30:28;23.67;70.38
65836;SHT30;52595;51.608;7.216;2023-06-26T08:32:55;23.59;70.42
65836;SHT30;52595;51.608;7.216;2023-06-26T08:35:20;23.50;70.69
65836;SHT30;52595;51.608;7.216;2023-06-26T08:37:46;23.71;70.57
65836;SHT30;52595;51.608;7.216;2023-06-26T08:40:12;23.59;70.18
65836;SHT30;52595;51.608;7.216;2023-06-26T08:42:37;23.57;70.36
65836;SHT30;52595;51.608;7.216;2023-06-26T08:45:03;23.19;71.38
65836;SHT30;52595;51.608;7.216;2023-06-26T08:47:29;23.05;72.00
65836;SHT30;52595;51.608;7.216;2023-06-26T08:50:10;23.51;70.76
65836;SHT30;52595;51.608;7.216;2023-06-26T08:52:54;23.51;71.45
65836;SHT30;52595;51.608;7.216;2023-06-26T08:55:23;23.61;71.12
65836;SHT30;52595;51.608;7.216;2023-06-26T08:57:50;23.47;70.47
65836;SHT30;52595;51.608;7.216;2023-06-26T09:00:17;23.39;70.69
65836;SHT30;52595;51.608;7.216;2023-06-26T09:02:43;23.26;71.44
65836;SHT30;52595;51.608;7.216;2023-06-26T09:05:09;22.99;71.37
65836;SHT30;52595;51.608;7.216;2023-06-26T09:07:35;23.26;70.70
65836;SHT30;52595;51.608;7.216;2023-06-26T09:10:00;23.36;70.66
65836;SHT30;52595;51.608;7.216;2023-06-26T09:12:27;23.66;70.67
65836;SHT30;52595;51.608;7.216;2023-06-26T09:14:54;23.56;69.37
65836;SHT30;52595;51.608;7.216;2023-06-26T09:17:24;22.98;70.59
65836;SHT30;52595;51.608;7.216;2023-06-26T09:19:50;22.88;70.98
65836;SHT30;52595;51.608;7.216;2023-06-26T09:22:16;22.89;70.68
65836;SHT30;52595;51.608;7.216;2023-06-26T09:24:43;23.22;70.97
65836;SHT30;52595;51.608;7.216;2023-06-26T09:27:09;23.63;69.72
65836;SHT30;52595;51.608;7.216;2023-06-26T09:29:34;23.71;69.48
65836;SHT30;52595;51.608;7.216;2023-06-26T09:32:00;23.69;68.53
65836;SHT30;52595;51.608;7.216;2023-06-26T09:34:33;23.87;68.39
65836;SHT30;52595;51.608;7.216;2023-06-26T09:36:59;23.69;68.88
65836;SHT30;52595;51.608;7.216;2023-06-26T09:39:30;23.88;68.32
65836;SHT30;52595;51.608;7.216;2023-06-26T09:41:56;23.54;67.91
65836;SHT30;52595;51.608;7.216;2023-06-26T09:44:22;23.36;69.20
65836;SHT30;52595;51.608;7.216;2023-06-26T09:46:48;23.22;68.86
65836;SHT30;52595;51.608;7.216;2023-06-26T09:49:13;23.27;67.52
65836;SHT30;52595;51.608;7.216;2023-06-26T09:51:41;23.20;67.44
65836;SHT30;52595;51.608;7.216;2023-06-26T09:54:07;23.27;67.45
65836;SHT30;52595;51.608;7.216;2023-06-26T09:56:33;23.71;66.94
65836;SHT30;52595;51.608;7.216;2023-06-26T09:59:00;23.85;65.52
65836;SHT30;52595;51.608;7.216;2023-06-26T10:01:27;24.01;64.55
65836;SHT30;52595;51.608;7.216;2023-06-26T10:03:53;24.45;63.57
65836;SHT30;52595;51.608;7.216;2023-06-26T10:06:22;24.52;63.86
65836;SHT30;52595;51.608;7.216;2023-06-26T10:08:49;24.34;63.68
65836;SHT30;52595;51.608;7.216;2023-06-26T10:11:16;24.82;62.63
65836;SHT30;52595;51.608;7.216;2023-06-26T10:13:47;24.64;62.21
65836;SHT30;52595;51.608;7.216;2023-06-26T10:16:19;24.96;61.92
65836;SHT30;52595;51.608;7.216;2023-06-26T10:18:47;24.56;61.89
65836;SHT30;52595;51.608;7.216;2023-06-26T10:21:14;24.54;61.68
65836;SHT30;52595;51.608;7.216;2023-06-26T10:23:41;24.20;62.39
65836;SHT30;52595;51.608;7.216;2023-06-26T10:26:08;24.47;62.29
65836;SHT30;52595;51.608;7.216;2023-06-26T10:28:35;24.82;61.62
65836;SHT30;52595;51.608;7.216;2023-06-26T10:31:03;24.86;58.33
65836;SHT30;52595;51.608;7.216;2023-06-26T10:33:30;24.83;57.27
65836;SHT30;52595;51.608;7.216;2023-06-26T10:36:18;25.12;56.68
65836;SHT30;52595;51.608;7.216;2023-06-26T10:39:14;24.54;57.29
65836;SHT30;52595;51.608;7.216;2023-06-26T10:41:40;24.45;58.35
65836;SHT30;52595;51.608;7.216;2023-06-26T10:44:12;24.45;58.38
65836;SHT30;52595;51.608;7.216;2023-06-26T10:46:54;24.66;56.03
65836;SHT30;52595;51.608;7.216;2023-06-26T10:49:24;25.34;55.54
65836;SHT30;52595;51.608;7.216;2023-06-26T10:51:51;25.17;53.63
65836;SHT30;52595;51.608;7.216;2023-06-26T10:54:18;25.17;54.86
65836;SHT30;52595;51.608;7.216;2023-06-26T10:56:49;25.13;54.71
65836;SHT30;52595;51.608;7.216;2023-06-26T10:59:20;25.77;55.83
65836;SHT30;52595;51.608;7.216;2023-06-26T11:01:56;26.59;55.98
65836;SHT30;52595;51.608;7.216;2023-06-26T11:04:44;25.92;54.69
65836;SHT30;52595;51.608;7.216;2023-06-26T11:07:23;25.22;56.71
65836;SHT30;52595;51.608;7.216;2023-06-26T11:10:02;24.71;59.80
65836;SHT30;52595;51.608;7.216;2023-06-26T11:12:41;24.90;60.31
65836;SHT30;52595;51.608;7.216;2023-06-26T11:15:11;24.66;60.49
65836;SHT30;52595;51.608;7.216;2023-06-26T11:17:38;24.61;60.15
65836;SHT30;52595;51.608;7.216;2023-06-26T11:20:22;24.92;58.58
65836;SHT30;52595;51.608;7.216;2023-06-26T11:22:48;25.09;58.62
65836;SHT30;52595;51.608;7.216;2023-06-26T11:25:19;25.13;59.60
65836;SHT30;52595;51.608;7.216;2023-06-26T11:27:45;24.17;61.31
65836;SHT30;52595;51.608;7.216;2023-06-26T11:30:21;24.13;61.45
65836;SHT30;52595;51.608;7.216;2023-06-26T11:32:47;24.52;59.48
65836;SHT30;52595;51.608;7.216;2023-06-26T11:35:13;24.86;58.50
65836;SHT30;52595;51.608;7.216;2023-06-26T11:37:38;25.16;57.41
65836;SHT30;52595;51.608;7.216;2023-06-26T11:40:17;25.29;56.10
65836;SHT30;52595;51.608;7.216;2023-06-26T11:42:44;25.23;56.41
65836;SHT30;52595;51.608;7.216;2023-06-26T11:45:09;25.78;54.65
65836;SHT30;52595;51.608;7.216;2023-06-26T11:47:36;26.22;53.93
65836;SHT30;52595;51.608;7.216;2023-06-26T11:50:04;26.44;52.24
65836;SHT30;52595;51.608;7.216;2023-06-26T11:52:32;26.39;52.58
65836;SHT30;52595;51.608;7.216;2023-06-26T11:54:58;26.44;53.08
65836;SHT30;52595;51.608;7.216;2023-06-26T11:57:23;25.26;55.23
65836;SHT30;52595;51.608;7.216;2023-06-26T11:59:50;25.13;56.19
65836;SHT30;52595;51.608;7.216;2023-06-26T12:02:16;25.36;55.65
65836;SHT30;52595;51.608;7.216;2023-06-26T12:04:43;24.79;56.77
65836;SHT30;52595;51.608;7.216;2023-06-26T12:07:09;25.47;55.14
65836;SHT30;52595;51.608;7.216;2023-06-26T12:09:43;25.59;52.77
65836;SHT30;52595;51.608;7.216;2023-06-26T12:12:12;25.60;52.54
65836;SHT30;52595;51.608;7.216;2023-06-26T12:14:39;26.00;51.54
65836;SHT30;52595;51.608;7.216;2023-06-26T12:17:13;26.11;49.80
65836;SHT30;52595;51.608;7.216;2023-06-26T12:19:42;25.70;49.38
65836;SHT30;52595;51.608;7.216;2023-06-26T12:22:08;25.60;49.35
65836;SHT30;52595;51.608;7.216;2023-06-26T12:24:38;25.87;49.20
65836;SHT30;52595;51.608;7.216;2023-06-26T12:27:11;25.49;49.23
65836;SHT30;52595;51.608;7.216;2023-06-26T12:29:40;26.42;46.72
65836;SHT30;52595;51.608;7.216;2023-06-26T12:32:10;25.91;47.22
65836;SHT30;52595;51.608;7.216;2023-06-26T12:34:37;25.77;46.80
65836;SHT30;52595;51.608;7.216;2023-06-26T12:37:05;26.01;44.79
65836;SHT30;52595;51.608;7.216;2023-06-26T12:39:51;26.22;45.43
65836;SHT30;52595;51.608;7.216;2023-06-26T12:42:19;26.60;45.35
65836;SHT30;52595;51.608;7.216;2023-06-26T12:44:44;26.97;43.49
65836;SHT30;52595;51.608;7.216;2023-06-26T12:47:10;26.89;43.97
65836;SHT30;52595;51.608;7.216;2023-06-26T12:49:42;25.63;45.84
65836;SHT30;52595;51.608;7.216;2023-06-26T12:52:13;25.61;45.95
65836;SHT30;52595;51.608;7.216;2023-06-26T12:54:41;25.30;46.74
65836;SHT30;52595;51.608;7.216;2023-06-26T12:57:07;26.09;44.86
65836;SHT30;52595;51.608;7.216;2023-06-26T12:59:34;26.56;43.00
65836;SHT30;52595;51.608;7.216;2023-06-26T13:01:59;26.66;46.66
65836;SHT30;52595;51.608;7.216;2023-06-26T13:04:25;25.78;48.27
65836;SHT30;52595;51.608;7.216;2023-06-26T13:06:51;25.36;49.45
65836;SHT30;52595;51.608;7.216;2023-06-26T13:09:19;25.44;49.40
65836;SHT30;52595;51.608;7.216;2023-06-26T13:11:45;26.09;48.53
65836;SHT30;52595;51.608;7.216;2023-06-26T13:14:10;26.99;47.48
65836;SHT30;52595;51.608;7.216;2023-06-26T13:16:36;27.23;46.74
65836;SHT30;52595;51.608;7.216;2023-06-26T13:19:02;27.26;47.62
65836;SHT30;52595;51.608;7.216;2023-06-26T13:21:27;26.59;47.70
65836;SHT30;52595;51.608;7.216;2023-06-26T13:23:53;26.09;49.16
65836;SHT30;52595;51.608;7.216;2023-06-26T13:26:19;25.70;50.13
65836;SHT30;52595;51.608;7.216;2023-06-26T13:28:45;24.68;51.60
65836;SHT30;52595;51.608;7.216;2023-06-26T13:31:10;24.89;52.02
65836;SHT30;52595;51.608;7.216;2023-06-26T13:33:35;24.25;52.63
65836;SHT30;52595;51.608;7.216;2023-06-26T13:36:01;23.94;52.63
65836;SHT30;52595;51.608;7.216;2023-06-26T13:38:30;23.84;53.19
65836;SHT30;52595;51.608;7.216;2023-06-26T13:40:55;23.74;53.95
65836;SHT30;52595;51.608;7.216;2023-06-26T13:43:23;24.34;52.16
65836;SHT30;52595;51.608;7.216;2023-06-26T13:45:49;24.88;50.59
65836;SHT30;52595;51.608;7.216;2023-06-26T13:48:14;24.92;50.39
65836;SHT30;52595;51.608;7.216;2023-06-26T13:50:40;24.65;51.34
65836;SHT30;52595;51.608;7.216;2023-06-26T13:53:05;25.49;50.22
65836;SHT30;52595;51.608;7.216;2023-06-26T13:55:31;26.22;49.06
65836;SHT30;52595;51.608;7.216;2023-06-26T13:57:56;26.38;48.21
65836;SHT30;52595;51.608;7.216;2023-06-26T14:00:22;25.29;48.80
65836;SHT30;52595;51.608;7.216;2023-06-26T14:02:51;24.59;50.18
65836;SHT30;52595;51.608;7.216;2023-06-26T14:05:17;24.78;49.36
65836;SHT30;52595;51.608;7.216;2023-06-26T14:07:44;24.47;49.15
65836;SHT30;52595;51.608;7.216;2023-06-26T14:10:09;24.82;48.23
65836;SHT30;52595;51.608;7.216;2023-06-26T14:12:35;26.44;47.11
65836;SHT30;52595;51.608;7.216;2023-06-26T14:15:00;26.97;45.74
65836;SHT30;52595;51.608;7.216;2023-06-26T14:17:26;25.91;47.62
65836;SHT30;52595;51.608;7.216;2023-06-26T14:19:52;26.17;47.67
65836;SHT30;52595;51.608;7.216;2023-06-26T14:22:17;26.00;47.75
65836;SHT30;52595;51.608;7.216;2023-06-26T14:24:43;25.40;48.76
65836;SHT30;52595;51.608;7.216;2023-06-26T14:27:08;25.29;47.89
65836;SHT30;52595;51.608;7.216;2023-06-26T14:29:38;24.90;48.74
65836;SHT30;52595;51.608;7.216;2023-06-26T14:32:04;25.33;47.56
65836;SHT30;52595;51.608;7.216;2023-06-26T14:34:29;26.08;47.14
65836;SHT30;52595;51.608;7.216;2023-06-26T14:36:55;25.51;48.19
65836;SHT30;52595;51.608;7.216;2023-06-26T14:39:21;25.74;48.75
65836;SHT30;52595;51.608;7.216;2023-06-26T14:41:46;25.94;48.06
65836;SHT30;52595;51.608;7.216;2023-06-26T14:44:15;26.45;46.77
65836;SHT30;52595;51.608;7.216;2023-06-26T14:46:41;26.17;46.45
65836;SHT30;52595;51.608;7.216;2023-06-26T14:49:06;25.23;47.96
65836;SHT30;52595;51.608;7.216;2023-06-26T14:51:31;25.66;47.69
65836;SHT30;52595;51.608;7.216;2023-06-26T14:53:57;25.71;47.39
65836;SHT30;52595;51.608;7.216;2023-06-26T14:56:22;26.12;45.77
65836;SHT30;52595;51.608;7.216;2023-06-26T14:58:48;25.24;45.97
65836;SHT30;52595;51.608;7.216;2023-06-26T15:01:13;25.23;45.89
65836;SHT30;52595;51.608;7.216;2023-06-26T15:03:42;25.10;46.94
65836;SHT30;52595;51.608;7.216;2023-06-26T15:06:07;25.53;47.34
65836;SHT30;52595;51.608;7.216;2023-06-26T15:08:34;26.22;46.54
65836;SHT30;52595;51.608;7.216;2023-06-26T15:11:01;25.87;46.81
65836;SHT30;52595;51.608;7.216;2023-06-26T15:13:26;26.05;46.11
65836;SHT30;52595;51.608;7.216;2023-06-26T15:15:52;25.10;47.92
65836;SHT30;52595;51.608;7.216;2023-06-26T15:18:17;24.90;48.88
65836;SHT30;52595;51.608;7.216;2023-06-26T15:20:42;24.73;49.25
65836;SHT30;52595;51.608;7.216;2023-06-26T15:23:08;24.54;49.78
65836;SHT30;52595;51.608;7.216;2023-06-26T15:25:33;23.84;50.93
65836;SHT30;52595;51.608;7.216;2023-06-26T15:28:05;23.69;50.68
65836;SHT30;52595;51.608;7.216;2023-06-26T15:30:30;23.80;51.07
65836;SHT30;52595;51.608;7.216;2023-06-26T15:32:56;23.96;50.12